sensor_id;sensor_type;location;lat;lon;timestamp;temperature;humidity
21770;DHT22;11046;49.558;8.674;2022-11-03T00:00:41;10.80;92.50
21770;DHT22;11046;49.558;8.674;2022-11-03T00:03:41;10.80;92.50
21770;DHT22;11046;49.558;8.674;2022-11-03T00:06:43;10.70;92.60
21770;DHT22;11046;49.558;8.674;2022-11-03T00:09:44;10.70;92.60
21770;DHT22;11046;49.558;8.674;2022-11-03T00:12:45;10.60;92.60
21770;DHT22;11046;49.558;8.674;2022-11-03T00:15:48;10.60;92.70
21770;DHT22;11046;49.558;8.674;2022-11-03T00:18:50;10.50;92.70
21770;DHT22;11046;49.558;8.674;2022-11-03T00:21:51;10.50;92.70
21770;DHT22;11046;49.558;8.674;2022-11-03T00:24:52;10.40;92.60
21770;DHT22;11046;49.558;8.674;2022-11-03T00:27:55;10.30;92.50
21770;DHT22;11046;49.558;8.674;2022-11-03T00:30:56;10.10;92.60
21770;DHT22;11046;49.558;8.674;2022-11-03T00:33:57;10.00;92.70
21770;DHT22;11046;49.558;8.674;2022-11-03T00:36:58;9.90;92.80
21770;DHT22;11046;49.558;8.674;2022-11-03T00:39:59;9.80;92.90
21770;DHT22;11046;49.558;8.674;2022-11-03T00:42:59;9.70;93.10
21770;DHT22;11046;49.558;8.674;2022-11-03T00:46:00;9.70;93.10
21770;DHT22;11046;49.558;8.674;2022-11-03T00:49:01;9.60;93.20
21770;DHT22;11046;49.558;8.674;2022-11-03T00:52:02;9.60;93.20
21770;DHT22;11046;49.558;8.674;2022-11-03T00:55:03;9.60;93.40
21770;DHT22;11046;49.558;8.674;2022-11-03T00:58:04;9.70;93.70
21770;DHT22;11046;49.558;8.674;2022-11-03T01:04:14;9.90;93.70
21770;DHT22;11046;49.558;8.674;2022-11-03T01:07:34;10.00;93.60
21770;DHT22;11046;49.558;8.674;2022-11-03T01:10:35;10.20;93.60
21770;DHT22;11046;49.558;8.674;2022-11-03T01:13:36;10.20;93.40
21770;DHT22;11046;49.558;8.674;2022-11-03T01:16:39;10.20;93.40
21770;DHT22;11046;49.558;8.674;2022-11-03T01:19:39;10.20;93.50
21770;DHT22;11046;49.558;8.674;2022-11-03T01:22:40;10.20;93.40
21770;DHT22;11046;49.558;8.674;2022-11-03T01:25:40;10.20;93.40
21770;DHT22;11046;49.558;8.674;2022-11-03T01:28:43;10.10;93.50
21770;DHT22;11046;49.558;8.674;2022-11-03T01:31:44;10.10;93.50
21770;DHT22;11046;49.558;8.674;2022-11-03T01:34:44;10.10;93.60
21770;DHT22;11046;49.558;8.674;2022-11-03T01:37:45;10.00;93.60
21770;DHT22;11046;49.558;8.674;2022-11-03T01:40:45;10.00;93.60
21770;DHT22;11046;49.558;8.674;2022-11-03T01:43:50;10.00;93.60
21770;DHT22;11046;49.558;8.674;2022-11-03T01:50:06;10.00;93.70
21770;DHT22;11046;49.558;8.674;2022-11-03T01:53:10;10.00;93.70
21770;DHT22;11046;49.558;8.674;2022-11-03T01:56:12;10.00;93.70
21770;DHT22;11046;49.558;8.674;2022-11-03T01:59:16;10.00;93.80
21770;DHT22;11046;49.558;8.674;2022-11-03T02:02:17;10.00;93.80
21770;DHT22;11046;49.558;8.674;2022-11-03T02:05:19;10.00;93.80
21770;DHT22;11046;49.558;8.674;2022-11-03T02:08:33;10.10;93.70
21770;DHT22;11046;49.558;8.674;2022-11-03T02:11:35;10.10;93.80
21770;DHT22;11046;49.558;8.674;2022-11-03T02:14:59;10.10;93.70
21770;DHT22;11046;49.558;8.674;2022-11-03T02:18:01;10.00;93.70
21770;DHT22;11046;49.558;8.674;2022-11-03T02:21:14;9.90;93.80
21770;DHT22;11046;49.558;8.674;2022-11-03T02:24:30;9.90;93.90
21770;DHT22;11046;49.558;8.674;2022-11-03T02:27:34;9.90;94.00
21770;DHT22;11046;49.558;8.674;2022-11-03T02:30:45;9.90;94.00
21770;DHT22;11046;49.558;8.674;2022-11-03T02:33:55;9.90;94.10
21770;DHT22;11046;49.558;8.674;2022-11-03T02:37:07;9.90;94.00
21770;DHT22;11046;49.558;8.674;2022-11-03T02:40:13;9.90;93.90
21770;DHT22;11046;49.558;8.674;2022-11-03T02:43:16;9.80;93.90
21770;DHT22;11046;49.558;8.674;2022-11-03T02:46:18;9.80;94.00
21770;DHT22;11046;49.558;8.674;2022-11-03T02:49:19;9.80;94.00
21770;DHT22;11046;49.558;8.674;2022-11-03T02:52:41;9.80;94.10
21770;DHT22;11046;49.558;8.674;2022-11-03T02:55:47;9.80;94.20
21770;DHT22;11046;49.558;8.674;2022-11-03T02:59:01;9.70;94.20
21770;DHT22;11046;49.558;8.674;2022-11-03T03:02:16;9.80;94.30
21770;DHT22;11046;49.558;8.674;2022-11-03T03:05:20;9.80;94.30
21770;DHT22;11046;49.558;8.674;2022-11-03T03:08:22;9.80;94.30
21770;DHT22;11046;49.558;8.674;2022-11-03T03:11:24;9.80;94.30
21770;DHT22;11046;49.558;8.674;2022-11-03T03:14:39;9.80;94.30
21770;DHT22;11046;49.558;8.674;2022-11-03T03:17:51;9.80;94.40
21770;DHT22;11046;49.558;8.674;2022-11-03T03:21:01;9.80;94.40
21770;DHT22;11046;49.558;8.674;2022-11-03T03:24:08;9.80;94.40
21770;DHT22;11046;49.558;8.674;2022-11-03T03:27:11;9.70;94.40
21770;DHT22;11046;49.558;8.674;2022-11-03T03:30:14;9.70;94.40
21770;DHT22;11046;49.558;8.674;2022-11-03T03:33:16;9.60;94.40
21770;DHT22;11046;49.558;8.674;2022-11-03T03:36:18;9.50;94.50
21770;DHT22;11046;49.558;8.674;2022-11-03T03:39:22;9.50;94.60
21770;DHT22;11046;49.558;8.674;2022-11-03T03:42:26;9.50;94.80
21770;DHT22;11046;49.558;8.674;2022-11-03T03:45:29;9.50;94.90
21770;DHT22;11046;49.558;8.674;2022-11-03T03:48:31;9.50;95.00
21770;DHT22;11046;49.558;8.674;2022-11-03T03:51:32;9.40;95.00
21770;DHT22;11046;49.558;8.674;2022-11-03T03:54:33;9.40;95.10
21770;DHT22;11046;49.558;8.674;2022-11-03T03:57:34;9.50;95.10
21770;DHT22;11046;49.558;8.674;2022-11-03T04:00:35;9.40;95.10
21770;DHT22;11046;49.558;8.674;2022-11-03T04:03:39;9.40;95.20
21770;DHT22;11046;49.558;8.674;2022-11-03T04:06:39;9.40;95.30
21770;DHT22;11046;49.558;8.674;2022-11-03T04:09:40;9.40;95.40
21770;DHT22;11046;49.558;8.674;2022-11-03T04:12:42;9.40;95.40
21770;DHT22;11046;49.558;8.674;2022-11-03T04:16:01;9.40;95.80
21770;DHT22;11046;49.558;8.674;2022-11-03T04:19:21;9.40;95.40
21770;DHT22;11046;49.558;8.674;2022-11-03T04:22:40;9.40;95.40
21770;DHT22;11046;49.558;8.674;2022-11-03T04:25:42;9.40;95.40
21770;DHT22;11046;49.558;8.674;2022-11-03T04:28:47;9.40;95.50
21770;DHT22;11046;49.558;8.674;2022-11-03T04:31:47;9.30;95.50
21770;DHT22;11046;49.558;8.674;2022-11-03T04:34:48;9.40;95.60
21770;DHT22;11046;49.558;8.674;2022-11-03T04:38:01;9.30;95.50
21770;DHT22;11046;49.558;8.674;2022-11-03T04:41:08;9.40;95.70
21770;DHT22;11046;49.558;8.674;2022-11-03T04:44:14;9.30;95.60
21770;DHT22;11046;49.558;8.674;2022-11-03T04:47:16;9.40;95.60
21770;DHT22;11046;49.558;8.674;2022-11-03T04:50:19;9.40;95.60
21770;DHT22;11046;49.558;8.674;2022-11-03T04:53:21;9.40;95.60
21770;DHT22;11046;49.558;8.674;2022-11-03T04:56:23;9.40;95.70
21770;DHT22;11046;49.558;8.674;2022-11-03T04:59:24;9.40;95.70
21770;DHT22;11046;49.558;8.674;2022-11-03T05:02:25;9.40;95.60
21770;DHT22;11046;49.558;8.674;2022-11-03T05:05:26;9.40;95.50
21770;DHT22;11046;49.558;8.674;2022-11-03T05:08:26;9.50;95.50
21770;DHT22;11046;49.558;8.674;2022-11-03T05:11:34;9.40;95.60
21770;DHT22;11046;49.558;8.674;2022-11-03T05:14:36;9.30;95.70
21770;DHT22;11046;49.558;8.674;2022-11-03T05:17:37;9.20;95.70
21770;DHT22;11046;49.558;8.674;2022-11-03T05:20:48;9.20;95.80
21770;DHT22;11046;49.558;8.674;2022-11-03T05:23:53;9.20;95.70
21770;DHT22;11046;49.558;8.674;2022-11-03T05:26:57;9.20;95.60
21770;DHT22;11046;49.558;8.674;2022-11-03T05:29:58;9.20;95.60
21770;DHT22;11046;49.558;8.674;2022-11-03T05:32:59;9.20;95.60
21770;DHT22;11046;49.558;8.674;2022-11-03T05:36:07;9.20;95.60
21770;DHT22;11046;49.558;8.674;2022-11-03T05:39:31;9.20;95.70
21770;DHT22;11046;49.558;8.674;2022-11-03T05:42:36;9.20;95.70
21770;DHT22;11046;49.558;8.674;2022-11-03T05:45:37;9.20;96.00
21770;DHT22;11046;49.558;8.674;2022-11-03T05:48:39;9.10;95.70
21770;DHT22;11046;49.558;8.674;2022-11-03T05:51:44;9.10;95.80
21770;DHT22;11046;49.558;8.674;2022-11-03T05:54:44;9.10;95.80
21770;DHT22;11046;49.558;8.674;2022-11-03T05:57:45;9.10;95.80
21770;DHT22;11046;49.558;8.674;2022-11-03T06:00:46;9.20;95.70
21770;DHT22;11046;49.558;8.674;2022-11-03T06:03:47;9.20;95.50
21770;DHT22;11046;49.558;8.674;2022-11-03T06:07:23;9.10;95.60
21770;DHT22;11046;49.558;8.674;2022-11-03T06:16:45;9.00;96.10
21770;DHT22;11046;49.558;8.674;2022-11-03T06:19:48;9.00;96.20
21770;DHT22;11046;49.558;8.674;2022-11-03T06:22:51;9.10;96.10
21770;DHT22;11046;49.558;8.674;2022-11-03T06:25:55;9.10;96.10
21770;DHT22;11046;49.558;8.674;2022-11-03T06:28:59;9.10;96.10
21770;DHT22;11046;49.558;8.674;2022-11-03T06:31:59;9.10;96.20
21770;DHT22;11046;49.558;8.674;2022-11-03T06:35:01;9.10;96.30
21770;DHT22;11046;49.558;8.674;2022-11-03T06:38:01;9.10;96.20
21770;DHT22;11046;49.558;8.674;2022-11-03T06:41:02;9.20;96.20
21770;DHT22;11046;49.558;8.674;2022-11-03T06:44:24;9.10;96.10
21770;DHT22;11046;49.558;8.674;2022-11-03T06:47:26;9.10;96.10
21770;DHT22;11046;49.558;8.674;2022-11-03T06:50:32;9.10;96.20
21770;DHT22;11046;49.558;8.674;2022-11-03T06:53:32;9.20;96.30
21770;DHT22;11046;49.558;8.674;2022-11-03T06:56:35;9.30;96.20
21770;DHT22;11046;49.558;8.674;2022-11-03T06:59:36;9.30;96.20
21770;DHT22;11046;49.558;8.674;2022-11-03T07:03:06;9.40;96.10
21770;DHT22;11046;49.558;8.674;2022-11-03T07:06:19;9.60;96.10
21770;DHT22;11046;49.558;8.674;2022-11-03T07:09:23;9.70;96.00
21770;DHT22;11046;49.558;8.674;2022-11-03T07:12:25;9.80;95.90
21770;DHT22;11046;49.558;8.674;2022-11-03T07:15:31;9.90;95.80
21770;DHT22;11046;49.558;8.674;2022-11-03T07:18:39;10.00;95.80
21770;DHT22;11046;49.558;8.674;2022-11-03T07:21:50;10.00;95.70
21770;DHT22;11046;49.558;8.674;2022-11-03T07:24:55;10.00;95.70
21770;DHT22;11046;49.558;8.674;2022-11-03T07:27:56;10.10;95.70
21770;DHT22;11046;49.558;8.674;2022-11-03T07:30:59;10.10;95.70
21770;DHT22;11046;49.558;8.674;2022-11-03T07:34:00;10.10;95.70
21770;DHT22;11046;49.558;8.674;2022-11-03T07:37:01;10.10;95.70
21770;DHT22;11046;49.558;8.674;2022-11-03T07:40:02;10.20;95.70
21770;DHT22;11046;49.558;8.674;2022-11-03T07:43:16;10.30;95.60
21770;DHT22;11046;49.558;8.674;2022-11-03T07:46:19;10.40;95.50
21770;DHT22;11046;49.558;8.674;2022-11-03T07:49:27;10.30;95.30
21770;DHT22;11046;49.558;8.674;2022-11-03T07:52:28;10.20;95.70
21770;DHT22;11046;49.558;8.674;2022-11-03T07:55:29;10.20;95.30
21770;DHT22;11046;49.558;8.674;2022-11-03T07:58:37;10.20;95.30
21770;DHT22;11046;49.558;8.674;2022-11-03T08:01:46;10.20;95.30
21770;DHT22;11046;49.558;8.674;2022-11-03T08:04:47;10.30;95.30
21770;DHT22;11046;49.558;8.674;2022-11-03T08:07:49;10.40;95.30
21770;DHT22;11046;49.558;8.674;2022-11-03T08:10:49;10.50;95.30
21770;DHT22;11046;49.558;8.674;2022-11-03T08:13:51;10.60;95.20
21770;DHT22;11046;49.558;8.674;2022-11-03T08:16:51;10.80;95.10
21770;DHT22;11046;49.558;8.674;2022-11-03T08:19:52;11.00;95.30
21770;DHT22;11046;49.558;8.674;2022-11-03T08:22:52;11.00;94.90
21770;DHT22;11046;49.558;8.674;2022-11-03T08:25:53;11.20;94.90
21770;DHT22;11046;49.558;8.674;2022-11-03T08:28:54;11.30;94.90
21770;DHT22;11046;49.558;8.674;2022-11-03T08:31:54;11.40;95.10
21770;DHT22;11046;49.558;8.674;2022-11-03T08:34:55;11.40;94.60
21770;DHT22;11046;49.558;8.674;2022-11-03T08:37:56;11.60;94.70
21770;DHT22;11046;49.558;8.674;2022-11-03T08:40:57;11.70;94.60
21770;DHT22;11046;49.558;8.674;2022-11-03T08:44:00;11.70;94.50
21770;DHT22;11046;49.558;8.674;2022-11-03T08:47:00;11.70;94.60
21770;DHT22;11046;49.558;8.674;2022-11-03T08:50:01;11.90;94.50
21770;DHT22;11046;49.558;8.674;2022-11-03T08:53:02;12.10;94.40
21770;DHT22;11046;49.558;8.674;2022-11-03T08:56:02;12.30;94.10
21770;DHT22;11046;49.558;8.674;2022-11-03T08:59:03;12.40;94.10
21770;DHT22;11046;49.558;8.674;2022-11-03T09:02:03;12.60;94.10
21770;DHT22;11046;49.558;8.674;2022-11-03T09:05:04;12.70;94.00
21770;DHT22;11046;49.558;8.674;2022-11-03T09:08:07;12.90;93.60
21770;DHT22;11046;49.558;8.674;2022-11-03T09:11:07;13.10;93.50
21770;DHT22;11046;49.558;8.674;2022-11-03T09:14:08;13.20;93.50
21770;DHT22;11046;49.558;8.674;2022-11-03T09:17:09;13.40;93.40
21770;DHT22;11046;49.558;8.674;2022-11-03T09:20:09;13.50;93.20
21770;DHT22;11046;49.558;8.674;2022-11-03T09:23:10;13.60;93.10
21770;DHT22;11046;49.558;8.674;2022-11-03T09:26:11;13.60;92.70
21770;DHT22;11046;49.558;8.674;2022-11-03T09:29:11;13.60;92.70
21770;DHT22;11046;49.558;8.674;2022-11-03T09:32:12;13.60;92.60
21770;DHT22;11046;49.558;8.674;2022-11-03T09:35:13;13.60;92.60
21770;DHT22;11046;49.558;8.674;2022-11-03T09:38:16;13.60;92.40
21770;DHT22;11046;49.558;8.674;2022-11-03T09:41:17;13.60;92.50
21770;DHT22;11046;49.558;8.674;2022-11-03T09:44:18;13.60;92.50
21770;DHT22;11046;49.558;8.674;2022-11-03T09:47:23;13.60;92.40
21770;DHT22;11046;49.558;8.674;2022-11-03T09:50:25;13.70;92.20
21770;DHT22;11046;49.558;8.674;2022-11-03T09:53:26;13.70;92.20
21770;DHT22;11046;49.558;8.674;2022-11-03T09:56:27;13.70;92.10
21770;DHT22;11046;49.558;8.674;2022-11-03T09:59:29;13.70;92.10
21770;DHT22;11046;49.558;8.674;2022-11-03T10:02:30;13.70;91.90
21770;DHT22;11046;49.558;8.674;2022-11-03T10:05:32;13.80;91.90
21770;DHT22;11046;49.558;8.674;2022-11-03T10:08:37;13.80;91.90
21770;DHT22;11046;49.558;8.674;2022-11-03T10:11:38;13.70;91.90
21770;DHT22;11046;49.558;8.674;2022-11-03T10:14:40;13.80;91.90
21770;DHT22;11046;49.558;8.674;2022-11-03T10:17:43;13.70;91.80
21770;DHT22;11046;49.558;8.674;2022-11-03T10:20:44;13.80;91.90
21770;DHT22;11046;49.558;8.674;2022-11-03T10:23:45;13.80;91.80
21770;DHT22;11046;49.558;8.674;2022-11-03T10:26:51;13.90;91.80
21770;DHT22;11046;49.558;8.674;2022-11-03T10:30:04;14.00;91.80
21770;DHT22;11046;49.558;8.674;2022-11-03T10:33:30;14.10;91.60
21770;DHT22;11046;49.558;8.674;2022-11-03T10:36:32;14.10;91.70
21770;DHT22;11046;49.558;8.674;2022-11-03T10:39:33;14.20;91.70
21770;DHT22;11046;49.558;8.674;2022-11-03T10:42:33;14.30;91.70
21770;DHT22;11046;49.558;8.674;2022-11-03T10:45:34;14.40;91.60
21770;DHT22;11046;49.558;8.674;2022-11-03T10:48:34;14.60;91.50
21770;DHT22;11046;49.558;8.674;2022-11-03T10:51:35;14.50;91.40
21770;DHT22;11046;49.558;8.674;2022-11-03T10:54:36;14.60;91.40
21770;DHT22;11046;49.558;8.674;2022-11-03T10:57:37;14.60;91.20
21770;DHT22;11046;49.558;8.674;2022-11-03T11:00:40;14.70;91.20
21770;DHT22;11046;49.558;8.674;2022-11-03T11:03:43;14.80;91.10
21770;DHT22;11046;49.558;8.674;2022-11-03T11:06:44;14.80;91.00
21770;DHT22;11046;49.558;8.674;2022-11-03T11:09:46;14.90;90.80
21770;DHT22;11046;49.558;8.674;2022-11-03T11:13:02;14.90;90.70
21770;DHT22;11046;49.558;8.674;2022-11-03T11:16:03;14.90;90.60
21770;DHT22;11046;49.558;8.674;2022-11-03T11:19:04;14.80;90.70
21770;DHT22;11046;49.558;8.674;2022-11-03T11:22:11;14.80;90.90
21770;DHT22;11046;49.558;8.674;2022-11-03T11:25:13;14.80;90.90
21770;DHT22;11046;49.558;8.674;2022-11-03T11:28:17;14.70;90.80
21770;DHT22;11046;49.558;8.674;2022-11-03T11:31:41;14.80;90.70
21770;DHT22;11046;49.558;8.674;2022-11-03T11:34:42;14.70;90.40
21770;DHT22;11046;49.558;8.674;2022-11-03T11:37:42;14.60;90.50
21770;DHT22;11046;49.558;8.674;2022-11-03T11:40:50;14.70;90.50
21770;DHT22;11046;49.558;8.674;2022-11-03T11:43:50;14.60;90.50
21770;DHT22;11046;49.558;8.674;2022-11-03T11:46:51;14.70;90.50
21770;DHT22;11046;49.558;8.674;2022-11-03T11:53:10;14.50;90.40
21770;DHT22;11046;49.558;8.674;2022-11-03T11:56:13;14.40;90.50
21770;DHT22;11046;49.558;8.674;2022-11-03T11:59:18;14.30;90.40
21770;DHT22;11046;49.558;8.674;2022-11-03T12:02:23;14.20;90.50
21770;DHT22;11046;49.558;8.674;2022-11-03T12:05:31;14.20;90.50
21770;DHT22;11046;49.558;8.674;2022-11-03T12:08:31;14.10;90.50
21770;DHT22;11046;49.558;8.674;2022-11-03T12:11:44;14.10;90.50
21770;DHT22;11046;49.558;8.674;2022-11-03T12:14:45;13.90;90.60
21770;DHT22;11046;49.558;8.674;2022-11-03T12:17:46;13.90;90.80
21770;DHT22;11046;49.558;8.674;2022-11-03T12:20:47;13.80;90.80
21770;DHT22;11046;49.558;8.674;2022-11-03T12:23:47;13.70;90.90
21770;DHT22;11046;49.558;8.674;2022-11-03T12:26:48;13.80;90.90
21770;DHT22;11046;49.558;8.674;2022-11-03T12:29:53;13.80;90.90
21770;DHT22;11046;49.558;8.674;2022-11-03T12:32:54;13.80;90.90
21770;DHT22;11046;49.558;8.674;2022-11-03T12:35:55;13.80;91.00
21770;DHT22;11046;49.558;8.674;2022-11-03T12:38:56;13.80;91.00
21770;DHT22;11046;49.558;8.674;2022-11-03T12:41:56;13.80;91.00
21770;DHT22;11046;49.558;8.674;2022-11-03T12:44:57;13.90;91.10
21770;DHT22;11046;49.558;8.674;2022-11-03T12:47:57;13.90;91.20
21770;DHT22;11046;49.558;8.674;2022-11-03T12:50:58;14.00;91.30
21770;DHT22;11046;49.558;8.674;2022-11-03T12:53:59;14.00;91.30
21770;DHT22;11046;49.558;8.674;2022-11-03T12:56:59;14.00;91.30
21770;DHT22;11046;49.558;8.674;2022-11-03T13:00:00;14.10;91.30
21770;DHT22;11046;49.558;8.674;2022-11-03T13:03:00;14.20;91.20
21770;DHT22;11046;49.558;8.674;2022-11-03T13:06:02;14.20;91.10
21770;DHT22;11046;49.558;8.674;2022-11-03T13:09:04;14.20;91.10
21770;DHT22;11046;49.558;8.674;2022-11-03T13:12:04;14.30;91.10
21770;DHT22;11046;49.558;8.674;2022-11-03T13:15:24;14.30;91.10
21770;DHT22;11046;49.558;8.674;2022-11-03T13:18:24;14.20;91.10
21770;DHT22;11046;49.558;8.674;2022-11-03T13:21:25;14.20;91.20
21770;DHT22;11046;49.558;8.674;2022-11-03T13:24:25;14.30;91.30
21770;DHT22;11046;49.558;8.674;2022-11-03T13:27:26;14.30;91.20
21770;DHT22;11046;49.558;8.674;2022-11-03T13:30:27;14.30;91.20
21770;DHT22;11046;49.558;8.674;2022-11-03T13:33:27;14.30;91.20
21770;DHT22;11046;49.558;8.674;2022-11-03T13:36:28;14.30;91.30
21770;DHT22;11046;49.558;8.674;2022-11-03T13:39:29;14.30;91.30
21770;DHT22;11046;49.558;8.674;2022-11-03T13:42:29;14.30;91.20
21770;DHT22;11046;49.558;8.674;2022-11-03T13:45:30;14.20;91.30
21770;DHT22;11046;49.558;8.674;2022-11-03T13:48:30;14.20;91.50
21770;DHT22;11046;49.558;8.674;2022-11-03T13:51:31;14.20;91.40
21770;DHT22;11046;49.558;8.674;2022-11-03T13:54:32;14.00;91.10
21770;DHT22;11046;49.558;8.674;2022-11-03T13:57:32;13.80;91.00
21770;DHT22;11046;49.558;8.674;2022-11-03T14:00:33;13.80;90.90
21770;DHT22;11046;49.558;8.674;2022-11-03T14:03:34;13.70;90.50
21770;DHT22;11046;49.558;8.674;2022-11-03T14:06:34;13.70;90.50
21770;DHT22;11046;49.558;8.674;2022-11-03T14:09:35;13.70;90.40
21770;DHT22;11046;49.558;8.674;2022-11-03T14:12:35;13.70;90.40
21770;DHT22;11046;49.558;8.674;2022-11-03T14:15:36;13.70;89.80
21770;DHT22;11046;49.558;8.674;2022-11-03T14:18:37;13.60;89.70
21770;DHT22;11046;49.558;8.674;2022-11-03T14:21:37;13.60;89.80
21770;DHT22;11046;49.558;8.674;2022-11-03T14:24:41;13.60;89.90
21770;DHT22;11046;49.558;8.674;2022-11-03T14:27:42;13.60;89.80
21770;DHT22;11046;49.558;8.674;2022-11-03T14:30:43;13.60;89.90
21770;DHT22;11046;49.558;8.674;2022-11-03T14:33:43;13.50;90.00
21770;DHT22;11046;49.558;8.674;2022-11-03T14:36:44;13.50;90.00
21770;DHT22;11046;49.558;8.674;2022-11-03T14:39:44;13.50;90.00
21770;DHT22;11046;49.558;8.674;2022-11-03T14:42:45;13.50;90.00
21770;DHT22;11046;49.558;8.674;2022-11-03T14:45:45;13.50;90.10
21770;DHT22;11046;49.558;8.674;2022-11-03T14:48:46;13.50;90.00
21770;DHT22;11046;49.558;8.674;2022-11-03T14:51:46;13.50;90.00
21770;DHT22;11046;49.558;8.674;2022-11-03T14:54:47;13.60;90.00
21770;DHT22;11046;49.558;8.674;2022-11-03T14:57:48;13.60;89.80
21770;DHT22;11046;49.558;8.674;2022-11-03T15:00:49;13.70;89.60
21770;DHT22;11046;49.558;8.674;2022-11-03T15:03:49;13.60;89.60
21770;DHT22;11046;49.558;8.674;2022-11-03T15:06:50;13.60;89.50
21770;DHT22;11046;49.558;8.674;2022-11-03T15:09:51;13.50;89.80
21770;DHT22;11046;49.558;8.674;2022-11-03T15:12:51;13.50;89.80
21770;DHT22;11046;49.558;8.674;2022-11-03T15:15:52;13.50;89.50
21770;DHT22;11046;49.558;8.674;2022-11-03T15:18:52;13.50;89.60
21770;DHT22;11046;49.558;8.674;2022-11-03T15:21:53;13.50;89.50
21770;DHT22;11046;49.558;8.674;2022-11-03T15:24:54;13.60;89.20
21770;DHT22;11046;49.558;8.674;2022-11-03T15:27:54;13.60;89.20
21770;DHT22;11046;49.558;8.674;2022-11-03T15:30:55;13.60;89.20
21770;DHT22;11046;49.558;8.674;2022-11-03T15:33:55;13.60;89.20
21770;DHT22;11046;49.558;8.674;2022-11-03T15:36:56;13.50;89.20
21770;DHT22;11046;49.558;8.674;2022-11-03T15:39:56;13.50;89.20
21770;DHT22;11046;49.558;8.674;2022-11-03T15:42:57;13.50;89.30
21770;DHT22;11046;49.558;8.674;2022-11-03T15:45:58;13.50;89.30
21770;DHT22;11046;49.558;8.674;2022-11-03T15:48:58;13.60;89.20
21770;DHT22;11046;49.558;8.674;2022-11-03T15:51:59;13.60;89.10
21770;DHT22;11046;49.558;8.674;2022-11-03T15:55:00;13.60;89.20
21770;DHT22;11046;49.558;8.674;2022-11-03T15:58:01;13.50;89.30
21770;DHT22;11046;49.558;8.674;2022-11-03T16:01:02;13.50;89.30
21770;DHT22;11046;49.558;8.674;2022-11-03T16:04:02;13.50;89.20
21770;DHT22;11046;49.558;8.674;2022-11-03T16:07:03;13.50;89.40
21770;DHT22;11046;49.558;8.674;2022-11-03T16:10:04;13.40;89.80
21770;DHT22;11046;49.558;8.674;2022-11-03T16:13:04;13.30;89.90
21770;DHT22;11046;49.558;8.674;2022-11-03T16:16:05;13.30;90.10
21770;DHT22;11046;49.558;8.674;2022-11-03T16:19:06;13.20;90.30
21770;DHT22;11046;49.558;8.674;2022-11-03T16:22:07;13.20;90.50
21770;DHT22;11046;49.558;8.674;2022-11-03T16:25:07;13.10;90.70
21770;DHT22;11046;49.558;8.674;2022-11-03T16:28:08;13.10;90.90
21770;DHT22;11046;49.558;8.674;2022-11-03T16:31:09;13.00;91.10
21770;DHT22;11046;49.558;8.674;2022-11-03T16:34:09;12.90;91.20
21770;DHT22;11046;49.558;8.674;2022-11-03T16:37:10;12.90;91.50
21770;DHT22;11046;49.558;8.674;2022-11-03T16:40:11;12.80;91.70
21770;DHT22;11046;49.558;8.674;2022-11-03T16:43:12;12.80;91.80
21770;DHT22;11046;49.558;8.674;2022-11-03T16:46:12;12.70;91.90
21770;DHT22;11046;49.558;8.674;2022-11-03T16:49:13;12.60;92.00
21770;DHT22;11046;49.558;8.674;2022-11-03T16:52:13;12.60;92.20
21770;DHT22;11046;49.558;8.674;2022-11-03T16:55:15;12.60;92.30
21770;DHT22;11046;49.558;8.674;2022-11-03T16:58:16;12.60;92.40
21770;DHT22;11046;49.558;8.674;2022-11-03T17:01:17;12.60;92.50
21770;DHT22;11046;49.558;8.674;2022-11-03T17:04:18;12.60;92.60
21770;DHT22;11046;49.558;8.674;2022-11-03T17:07:18;12.60;92.70
21770;DHT22;11046;49.558;8.674;2022-11-03T17:10:19;12.50;92.70
21770;DHT22;11046;49.558;8.674;2022-11-03T17:13:19;12.50;92.80
21770;DHT22;11046;49.558;8.674;2022-11-03T17:16:20;12.50;92.90
21770;DHT22;11046;49.558;8.674;2022-11-03T17:19:20;12.40;93.00
21770;DHT22;11046;49.558;8.674;2022-11-03T17:22:21;12.30;93.30
21770;DHT22;11046;49.558;8.674;2022-11-03T17:25:22;12.30;93.40
21770;DHT22;11046;49.558;8.674;2022-11-03T17:28:23;12.20;93.50
21770;DHT22;11046;49.558;8.674;2022-11-03T17:31:24;12.20;93.90
21770;DHT22;11046;49.558;8.674;2022-11-03T17:34:25;12.20;93.60
21770;DHT22;11046;49.558;8.674;2022-11-03T17:37:26;12.10;93.70
21770;DHT22;11046;49.558;8.674;2022-11-03T17:40:27;12.10;93.80
21770;DHT22;11046;49.558;8.674;2022-11-03T17:43:28;12.10;93.90
21770;DHT22;11046;49.558;8.674;2022-11-03T17:46:30;12.10;93.90
21770;DHT22;11046;49.558;8.674;2022-11-03T17:49:31;12.10;93.90
21770;DHT22;11046;49.558;8.674;2022-11-03T17:52:32;12.10;93.90
21770;DHT22;11046;49.558;8.674;2022-11-03T17:55:33;12.20;93.80
21770;DHT22;11046;49.558;8.674;2022-11-03T17:58:34;12.30;93.80
21770;DHT22;11046;49.558;8.674;2022-11-03T18:01:36;12.30;93.70
21770;DHT22;11046;49.558;8.674;2022-11-03T18:04:37;12.40;93.70
21770;DHT22;11046;49.558;8.674;2022-11-03T18:07:37;12.40;93.60
21770;DHT22;11046;49.558;8.674;2022-11-03T18:10:46;12.40;93.60
21770;DHT22;11046;49.558;8.674;2022-11-03T18:13:49;12.50;93.60
21770;DHT22;11046;49.558;8.674;2022-11-03T18:16:50;12.50;93.60
21770;DHT22;11046;49.558;8.674;2022-11-03T18:19:51;12.50;93.80
21770;DHT22;11046;49.558;8.674;2022-11-03T18:22:52;12.40;93.90
21770;DHT22;11046;49.558;8.674;2022-11-03T18:25:55;12.50;94.00
21770;DHT22;11046;49.558;8.674;2022-11-03T18:28:55;12.50;94.10
21770;DHT22;11046;49.558;8.674;2022-11-03T18:31:56;12.50;94.10
21770;DHT22;11046;49.558;8.674;2022-11-03T18:34:58;12.50;94.10
21770;DHT22;11046;49.558;8.674;2022-11-03T18:37:58;12.60;94.20
21770;DHT22;11046;49.558;8.674;2022-11-03T18:40:59;12.60;94.20
21770;DHT22;11046;49.558;8.674;2022-11-03T18:44:21;12.60;94.30
21770;DHT22;11046;49.558;8.674;2022-11-03T18:47:23;12.60;94.50
21770;DHT22;11046;49.558;8.674;2022-11-03T18:50:26;12.60;94.50
21770;DHT22;11046;49.558;8.674;2022-11-03T18:53:26;12.60;94.50
21770;DHT22;11046;49.558;8.674;2022-11-03T18:56:27;12.60;94.60
21770;DHT22;11046;49.558;8.674;2022-11-03T18:59:30;12.70;94.70
21770;DHT22;11046;49.558;8.674;2022-11-03T19:02:31;12.60;94.90
21770;DHT22;11046;49.558;8.674;2022-11-03T19:05:32;12.50;95.10
21770;DHT22;11046;49.558;8.674;2022-11-03T19:08:33;12.50;95.30
21770;DHT22;11046;49.558;8.674;2022-11-03T19:11:34;12.40;95.50
21770;DHT22;11046;49.558;8.674;2022-11-03T19:14:35;12.40;95.60
21770;DHT22;11046;49.558;8.674;2022-11-03T19:17:38;12.40;95.70
21770;DHT22;11046;49.558;8.674;2022-11-03T19:20:39;12.40;95.90
21770;DHT22;11046;49.558;8.674;2022-11-03T19:23:39;12.40;96.00
21770;DHT22;11046;49.558;8.674;2022-11-03T19:26:50;12.30;96.00
21770;DHT22;11046;49.558;8.674;2022-11-03T19:29:53;12.30;96.20
21770;DHT22;11046;49.558;8.674;2022-11-03T19:32:55;12.30;96.20
21770;DHT22;11046;49.558;8.674;2022-11-03T19:35:57;12.20;96.50